createdAt,value
2019-05-06T00:00:59.750Z,6.40
2019-05-06T00:03:26.911Z,6.28
2019-05-06T00:05:54.300Z,6.47
2019-05-06T00:08:23.389Z,5.97
2019-05-06T00:10:49.605Z,6.10
2019-05-06T00:13:16.237Z,5.40
2019-05-06T00:15:43.683Z,6.22
2019-05-06T00:18:10.694Z,7.12
2019-05-06T00:20:37.288Z,7.97
2019-05-06T00:23:06.160Z,7.33
2019-05-06T00:25:40.474Z,9.25
2019-05-06T00:28:09.058Z,9.38
2019-05-06T00:31:12.199Z,9.28
2019-05-06T00:33:28.625Z,10.13
2019-05-06T00:35:55.191Z,11.75
2019-05-06T00:38:24.721Z,10.00
2019-05-06T00:40:56.185Z,10.98
2019-05-06T00:43:23.582Z,8.60
2019-05-06T00:45:50.298Z,8.65
2019-05-06T00:48:16.998Z,7.62
2019-05-06T00:50:44.145Z,7.72
2019-05-06T00:53:14.165Z,7.72
2019-05-06T00:55:44.486Z,9.68
2019-05-06T00:58:09.474Z,8.73
2019-05-06T01:00:37.844Z,7.35
2019-05-06T01:03:05.132Z,7.87
2019-05-06T01:05:33.611Z,6.97
2019-05-06T01:08:00.119Z,6.53
2019-05-06T01:10:26.738Z,7.00
2019-05-06T01:12:55.252Z,7.00
2019-05-06T01:15:23.896Z,6.85
2019-05-06T01:17:50.283Z,6.55
2019-05-06T01:20:18.066Z,6.62
2019-05-06T01:22:44.625Z,6.65
2019-05-06T01:25:11.399Z,7.25
2019-05-06T01:27:38.603Z,7.95
2019-05-06T01:30:06.321Z,6.90
2019-05-06T01:32:34.546Z,6.75
2019-05-06T01:35:01.211Z,7.55
2019-05-06T01:37:28.245Z,8.00
2019-05-06T01:40:08.555Z,7.03
2019-05-06T01:42:54.149Z,7.30
2019-05-06T01:45:21.072Z,6.80
2019-05-06T01:47:47.932Z,7.08
2019-05-06T01:50:15.151Z,8.00
2019-05-06T01:52:41.731Z,6.70
2019-05-06T01:55:08.674Z,6.90
2019-05-06T01:57:35.754Z,7.12
2019-05-06T02:00:05.505Z,6.83
2019-05-06T02:05:01.162Z,6.95
2019-05-06T02:07:27.864Z,6.92
2019-05-06T02:09:54.485Z,7.05
2019-05-06T02:12:21.267Z,7.15
2019-05-06T02:14:47.962Z,7.20
2019-05-06T02:17:14.612Z,7.12
2019-05-06T02:19:43.829Z,7.67
2019-05-06T02:22:15.102Z,7.33
2019-05-06T02:27:16.248Z,7.37
2019-05-06T02:29:50.394Z,7.22
2019-05-06T02:32:27.053Z,7.50
2019-05-06T02:34:54.998Z,6.95
2019-05-06T02:37:26.330Z,7.87
2019-05-06T02:42:20.372Z,7.85
2019-05-06T02:44:46.962Z,7.25
2019-05-06T02:47:15.396Z,7.10
2019-05-06T02:49:44.398Z,8.00
2019-05-06T02:52:13.805Z,7.95
2019-05-06T02:54:42.962Z,7.75
2019-05-06T02:57:09.468Z,7.45
2019-05-06T02:59:37.194Z,7.97
2019-05-06T03:02:03.936Z,7.85
2019-05-06T03:04:33.287Z,7.95
2019-05-06T03:06:58.989Z,7.58
2019-05-06T03:09:25.937Z,8.63
2019-05-06T03:11:53.981Z,7.65
2019-05-06T03:14:23.375Z,8.85
2019-05-06T03:16:53.409Z,8.68
2019-05-06T03:19:19.097Z,8.25
2019-05-06T03:22:05.681Z,9.98
2019-05-06T03:24:37.328Z,9.60
2019-05-06T03:27:04.827Z,9.50
2019-05-06T03:29:33.394Z,9.68
2019-05-06T03:32:00.153Z,9.45
2019-05-06T03:34:49.209Z,9.35
2019-05-06T03:36:56.713Z,9.08
2019-05-06T03:39:25.662Z,9.70
2019-05-06T03:41:53.640Z,8.63
2019-05-06T03:44:23.635Z,8.80
2019-05-06T03:47:07.648Z,9.65
2019-05-06T03:49:36.276Z,9.50
2019-05-06T03:52:03.045Z,11.83
2019-05-06T03:54:34.011Z,6.65
2019-05-06T03:57:03.007Z,6.45
2019-05-06T03:59:29.280Z,7.80
2019-05-06T04:01:55.966Z,7.60
2019-05-06T04:04:23.357Z,7.83
2019-05-06T04:06:53.135Z,7.78
2019-05-06T04:09:19.153Z,8.10
2019-05-06T04:11:46.329Z,7.83
2019-05-06T04:14:16.042Z,6.90
2019-05-06T04:16:47.737Z,7.78
2019-05-06T04:19:26.501Z,7.40
2019-05-06T04:21:55.206Z,7.00
2019-05-06T04:24:23.966Z,7.47
2019-05-06T04:27:03.024Z,7.50
2019-05-06T04:29:35.217Z,8.08
2019-05-06T04:31:59.145Z,8.33
2019-05-06T04:34:28.528Z,6.45
2019-05-06T04:36:55.565Z,7.33
2019-05-06T04:39:23.344Z,7.15
2019-05-06T04:41:53.613Z,8.30
2019-05-06T04:44:18.990Z,8.70
2019-05-06T04:46:45.718Z,8.18
2019-05-06T04:49:15.152Z,8.60
2019-05-06T04:51:43.105Z,7.90
2019-05-06T04:54:13.029Z,8.13
2019-05-06T04:56:38.095Z,7.08
2019-05-06T04:59:06.435Z,7.37
2019-05-06T05:01:34.180Z,8.05
2019-05-06T05:04:03.473Z,8.00
2019-05-06T05:06:32.846Z,8.00
2019-05-06T05:08:59.631Z,8.68
2019-05-06T05:11:28.095Z,9.15
2019-05-06T05:14:13.435Z,10.38
2019-05-06T05:16:52.825Z,11.63
2019-05-06T05:19:19.593Z,12.05
2019-05-06T05:21:46.469Z,13.25
2019-05-06T05:24:13.039Z,13.13
2019-05-06T05:26:43.076Z,13.70
2019-05-06T05:29:09.485Z,14.43
2019-05-06T05:31:36.225Z,14.38
2019-05-06T05:34:03.311Z,11.90
2019-05-06T05:36:32.610Z,9.85
2019-05-06T05:38:59.268Z,10.03
2019-05-06T05:41:26.126Z,8.95
2019-05-06T05:43:57.677Z,7.90
2019-05-06T05:48:55.630Z,7.85
2019-05-06T05:51:22.325Z,7.78
2019-05-06T05:53:49.248Z,7.40
2019-05-06T05:56:15.890Z,6.47
2019-05-06T05:58:42.749Z,7.15
2019-05-06T06:01:09.546Z,7.37
2019-05-06T06:03:36.478Z,6.90
2019-05-06T06:06:03.335Z,6.80
2019-05-06T06:08:32.104Z,8.18
2019-05-06T06:11:12.288Z,8.63
2019-05-06T06:13:39.014Z,7.30
2019-05-06T06:16:16.542Z,7.28
2019-05-06T06:18:48.135Z,6.97
2019-05-06T06:21:33.257Z,7.50
2019-05-06T06:24:04.961Z,6.87
2019-05-06T06:26:32.532Z,7.72
2019-05-06T06:28:59.159Z,7.45
2019-05-06T06:31:39.737Z,7.12
2019-05-06T06:34:09.737Z,7.27
2019-05-06T06:36:44.299Z,7.17
2019-05-06T06:39:12.691Z,8.40
2019-05-06T06:41:39.375Z,8.13
2019-05-06T06:44:13.096Z,7.92
2019-05-06T06:46:40.279Z,7.80
2019-05-06T06:49:07.189Z,8.28
2019-05-06T06:51:34.235Z,8.10
2019-05-06T06:54:02.501Z,9.20
2019-05-06T06:56:32.952Z,8.85
2019-05-06T06:59:16.627Z,8.87
2019-05-06T07:01:53.428Z,8.35
2019-05-06T07:04:23.138Z,7.95
2019-05-06T07:06:53.141Z,7.65
2019-05-06T07:09:20.025Z,7.87
2019-05-06T07:11:46.533Z,7.95
2019-05-06T07:14:13.721Z,6.67
2019-05-06T07:16:42.868Z,7.47
2019-05-06T07:19:08.775Z,7.28
2019-05-06T07:21:45.933Z,7.37
2019-05-06T07:24:13.124Z,7.58
2019-05-06T07:26:44.724Z,7.90
2019-05-06T07:29:15.288Z,7.45
2019-05-06T07:31:42.513Z,7.90
2019-05-06T07:34:09.419Z,8.23
2019-05-06T07:36:35.866Z,7.30
2019-05-06T07:39:05.271Z,7.40
2019-05-06T07:41:36.918Z,8.73
2019-05-06T07:46:52.499Z,8.65
2019-05-06T07:49:19.507Z,7.95
2019-05-06T07:52:06.378Z,8.55
2019-05-06T07:54:33.119Z,8.60
2019-05-06T07:57:01.825Z,8.23
2019-05-06T07:59:27.949Z,8.70
2019-05-06T08:01:54.683Z,9.08
2019-05-06T08:04:22.937Z,8.45
2019-05-06T08:06:49.468Z,8.45
2019-05-06T08:09:16.124Z,8.95
2019-05-06T08:11:44.383Z,8.78
2019-05-06T08:14:13.009Z,8.88
2019-05-06T08:16:58.202Z,9.28
2019-05-06T08:19:24.824Z,8.85
2019-05-06T08:21:53.408Z,8.25
2019-05-06T08:24:19.950Z,9.48
2019-05-06T08:26:46.742Z,9.15
2019-05-06T08:29:15.906Z,9.43
2019-05-06T08:31:44.003Z,9.68
2019-05-06T08:34:12.285Z,8.93
2019-05-06T08:36:42.601Z,8.50
2019-05-06T08:39:09.707Z,9.63
2019-05-06T08:41:36.632Z,9.93
2019-05-06T08:44:03.739Z,9.08
2019-05-06T08:46:32.642Z,9.50
2019-05-06T08:49:03.035Z,9.45
2019-05-06T08:51:38.823Z,9.50
2019-05-06T08:54:13.432Z,9.43
2019-05-06T08:56:42.538Z,9.45
2019-05-06T08:59:42.325Z,9.73
2019-05-06T09:02:09.290Z,8.38
2019-05-06T09:04:35.975Z,9.45
2019-05-06T09:07:03.118Z,9.30
2019-05-06T09:09:32.399Z,9.70
2019-05-06T09:11:59.019Z,9.55
2019-05-06T09:14:25.707Z,10.15
2019-05-06T09:16:53.854Z,8.95
2019-05-06T09:19:23.118Z,9.30
2019-05-06T09:21:49.697Z,9.63
2019-05-06T09:24:16.584Z,9.93
2019-05-06T09:26:52.278Z,9.55
2019-05-06T09:29:27.021Z,9.00
2019-05-06T09:31:55.783Z,8.58
2019-05-06T09:34:36.884Z,8.55
2019-05-06T09:37:14.446Z,8.25
2019-05-06T09:39:43.348Z,7.80
2019-05-06T09:42:12.654Z,7.35
2019-05-06T09:44:39.162Z,7.80
2019-05-06T09:47:07.933Z,8.65
2019-05-06T09:49:36.952Z,8.58
2019-05-06T09:52:03.949Z,9.23
2019-05-06T09:54:32.604Z,9.73
2019-05-06T09:57:06.982Z,10.05
2019-05-06T09:59:33.834Z,9.58
2019-05-06T10:02:00.419Z,9.55
2019-05-06T10:04:27.146Z,9.88
2019-05-06T10:06:57.206Z,9.38
2019-05-06T10:09:32.760Z,9.25
2019-05-06T10:12:01.935Z,8.70
2019-05-06T10:14:29.586Z,8.45
2019-05-06T10:16:56.603Z,9.33
2019-05-06T10:19:23.428Z,8.45
2019-05-06T10:21:52.877Z,8.93
2019-05-06T10:24:19.312Z,7.97
2019-05-06T10:26:48.301Z,8.53
2019-05-06T10:29:22.124Z,8.18
2019-05-06T10:31:52.379Z,8.88
2019-05-06T10:34:19.139Z,8.78
2019-05-06T10:36:49.857Z,9.28
2019-05-06T10:39:22.787Z,8.78
2019-05-06T10:42:13.639Z,9.00
2019-05-06T10:47:12.025Z,10.28
2019-05-06T10:49:39.249Z,10.08
2019-05-06T10:52:08.210Z,9.23
2019-05-06T10:54:36.254Z,9.95
2019-05-06T10:57:13.940Z,9.93
2019-05-06T10:59:42.930Z,10.20
2019-05-06T11:02:12.963Z,10.98
2019-05-06T11:04:39.884Z,10.18
2019-05-06T11:07:07.097Z,10.28
2019-05-06T11:09:37.040Z,10.30
2019-05-06T11:12:04.147Z,11.03
2019-05-06T11:14:32.896Z,11.50
2019-05-06T11:16:59.591Z,13.60
2019-05-06T11:19:26.217Z,13.62
2019-05-06T11:21:53.293Z,10.60
2019-05-06T11:24:22.959Z,9.13
2019-05-06T11:26:48.900Z,8.30
2019-05-06T11:29:17.641Z,9.23
2019-05-06T11:31:49.670Z,8.65
2019-05-06T11:34:32.476Z,9.10
2019-05-06T11:37:19.400Z,9.48
2019-05-06T11:39:45.989Z,9.50
2019-05-06T11:42:24.977Z,8.95
2019-05-06T11:44:44.115Z,7.30
2019-05-06T11:47:12.378Z,6.30
2019-05-06T11:49:38.308Z,7.55
2019-05-06T11:52:05.226Z,5.75
2019-05-06T11:54:33.725Z,6.28
2019-05-06T11:57:02.926Z,5.47
2019-05-06T11:59:30.096Z,6.12
2019-05-06T12:02:07.595Z,6.65
2019-05-06T12:04:34.647Z,6.53
2019-05-06T12:07:10.263Z,7.60
2019-05-06T12:09:33.056Z,7.25
2019-05-06T12:12:00.290Z,14.68
2019-05-06T12:14:27.336Z,9.48
2019-05-06T12:16:55.074Z,12.95
2019-05-06T12:19:22.675Z,9.18
2019-05-06T12:21:49.636Z,7.50
2019-05-06T12:24:16.354Z,5.72
2019-05-06T12:26:43.141Z,5.42
2019-05-06T12:29:09.876Z,4.97
2019-05-06T12:31:36.900Z,5.92
2019-05-06T12:34:03.694Z,6.58
2019-05-06T12:36:32.592Z,6.67
2019-05-06T12:39:18.734Z,7.40
2019-05-06T12:41:53.413Z,7.95
2019-05-06T12:44:22.920Z,8.95
2019-05-06T12:46:53.923Z,8.85
2019-05-06T12:49:20.757Z,8.88
2019-05-06T12:51:47.493Z,9.40
2019-05-06T12:54:14.073Z,9.68
2019-05-06T12:56:42.535Z,9.25
2019-05-06T12:59:09.174Z,10.15
2019-05-06T13:01:35.827Z,10.28
2019-05-06T13:04:04.650Z,9.75
2019-05-06T13:06:33.456Z,9.33
2019-05-06T13:09:04.150Z,9.60
2019-05-06T13:11:31.329Z,9.85
2019-05-06T13:14:00.793Z,10.40
2019-05-06T13:16:26.929Z,9.85
2019-05-06T13:18:54.886Z,9.70
2019-05-06T13:21:22.320Z,8.63
2019-05-06T13:23:53.381Z,8.08
2019-05-06T13:26:22.111Z,8.13
2019-05-06T13:28:50.367Z,7.60
2019-05-06T13:31:21.635Z,7.90
2019-05-06T13:33:54.091Z,7.45
2019-05-06T13:36:22.687Z,8.80
2019-05-06T13:38:49.430Z,5.45
2019-05-06T13:41:16.421Z,4.08
2019-05-06T13:43:49.968Z,3.85
2019-05-06T13:46:24.960Z,2.75
2019-05-06T13:49:03.067Z,2.83
2019-05-06T13:51:35.138Z,2.95
2019-05-06T13:54:02.557Z,2.83
2019-05-06T13:56:29.562Z,3.08
2019-05-06T13:58:56.735Z,3.08
2019-05-06T14:01:43.510Z,3.60
2019-05-06T14:04:12.922Z,3.85
2019-05-06T14:06:39.943Z,4.23
2019-05-06T14:09:07.116Z,4.28
2019-05-06T14:11:34.603Z,3.40
2019-05-06T14:14:03.593Z,3.15
2019-05-06T14:16:33.545Z,3.17
2019-05-06T14:18:59.821Z,3.25
2019-05-06T14:21:26.805Z,3.67
2019-05-06T14:23:54.628Z,4.15
2019-05-06T14:26:33.261Z,3.87
2019-05-06T14:29:08.415Z,4.15
2019-05-06T14:31:37.506Z,4.35
2019-05-06T14:34:04.339Z,4.20
2019-05-06T14:36:32.775Z,4.00
2019-05-06T14:39:04.603Z,4.08
2019-05-06T14:41:32.722Z,4.50
2019-05-06T14:43:59.351Z,4.33
2019-05-06T14:46:29.635Z,4.80
2019-05-06T14:48:56.541Z,4.25
2019-05-06T14:51:23.281Z,4.90
2019-05-06T14:53:52.776Z,4.97
2019-05-06T14:56:22.568Z,4.33
2019-05-06T14:59:06.129Z,5.00
2019-05-06T15:01:34.219Z,5.10
2019-05-06T15:04:03.384Z,4.33
2019-05-06T15:06:36.410Z,4.22
2019-05-06T15:09:06.386Z,4.97
2019-05-06T15:11:33.366Z,4.33
2019-05-06T15:14:03.469Z,4.05
2019-05-06T15:16:29.192Z,4.72
2019-05-06T15:18:56.134Z,4.75
2019-05-06T15:21:37.100Z,8.53
2019-05-06T15:23:53.029Z,7.03
2019-05-06T15:26:20.139Z,6.45
2019-05-06T15:28:47.320Z,4.55
2019-05-06T15:31:16.501Z,3.80
2019-05-06T15:33:45.266Z,3.98
2019-05-06T15:36:26.441Z,5.10
2019-05-06T15:41:22.299Z,4.85
2019-05-06T15:43:49.054Z,7.55
2019-05-06T15:46:16.441Z,6.50
2019-05-06T15:48:43.691Z,6.92
2019-05-06T15:51:12.228Z,8.15
2019-05-06T15:53:39.637Z,5.00
2019-05-06T15:56:06.537Z,4.97
2019-05-06T15:58:33.542Z,4.42
2019-05-06T16:01:02.938Z,4.62
2019-05-06T16:03:29.537Z,4.33
2019-05-06T16:05:56.482Z,4.22
2019-05-06T16:08:24.494Z,5.10
2019-05-06T16:10:55.738Z,4.62
2019-05-06T16:13:22.292Z,4.72
2019-05-06T16:15:49.061Z,3.87
2019-05-06T16:18:25.538Z,4.37
2019-05-06T16:20:52.651Z,3.92
2019-05-06T16:23:24.050Z,4.33
2019-05-06T16:25:52.434Z,4.30
2019-05-06T16:28:22.474Z,3.75
2019-05-06T16:30:50.305Z,4.00
2019-05-06T16:33:19.068Z,3.67
2019-05-06T16:35:46.430Z,3.85
2019-05-06T16:38:13.358Z,4.03
2019-05-06T16:40:45.030Z,3.52
2019-05-06T16:43:12.501Z,3.33
2019-05-06T16:45:39.441Z,3.50
2019-05-06T16:48:08.027Z,4.28
2019-05-06T16:50:35.286Z,3.30
2019-05-06T16:53:02.816Z,3.83
2019-05-06T16:55:48.316Z,3.60
2019-05-06T16:58:17.387Z,3.83
2019-05-06T17:00:44.636Z,3.30
2019-05-06T17:03:19.674Z,3.25
2019-05-06T17:06:05.354Z,3.40
2019-05-06T17:08:35.949Z,3.17
2019-05-06T17:11:04.386Z,3.45
2019-05-06T17:13:33.493Z,3.40
2019-05-06T17:15:58.486Z,6.28
2019-05-06T17:18:25.419Z,4.00
2019-05-06T17:20:52.391Z,3.92
2019-05-06T17:23:19.054Z,3.72
2019-05-06T17:25:45.885Z,4.65
2019-05-06T17:28:27.003Z,4.10
2019-05-06T17:30:58.254Z,3.02
2019-05-06T17:36:14.833Z,3.80
2019-05-06T17:38:44.450Z,2.83
2019-05-06T17:41:12.341Z,3.42
2019-05-06T17:43:41.092Z,3.58
2019-05-06T17:46:08.588Z,3.90
2019-05-06T17:48:37.283Z,3.62
2019-05-06T17:51:08.307Z,3.47
2019-05-06T17:53:36.235Z,3.37
2019-05-06T17:56:03.863Z,3.00
2019-05-06T17:58:33.202Z,3.17
2019-05-06T18:01:03.302Z,3.02
2019-05-06T18:03:32.555Z,3.25
2019-05-06T18:05:59.118Z,2.83
2019-05-06T18:08:26.341Z,3.10
2019-05-06T18:10:53.822Z,3.40
2019-05-06T18:13:21.978Z,3.30
2019-05-06T18:15:49.119Z,3.10
2019-05-06T18:18:15.813Z,3.50
2019-05-06T18:20:43.309Z,3.77
2019-05-06T18:23:12.732Z,3.70
2019-05-06T18:25:39.383Z,3.37
2019-05-06T18:28:05.932Z,3.55
2019-05-06T18:30:36.889Z,3.37
2019-05-06T18:33:02.393Z,3.35
2019-05-06T18:35:29.287Z,4.05
2019-05-06T18:37:56.959Z,3.47
2019-05-06T18:40:24.021Z,3.25
2019-05-06T18:42:52.497Z,3.35
2019-05-06T18:45:21.937Z,3.25
2019-05-06T18:47:48.840Z,3.62
2019-05-06T18:51:03.574Z,3.17
2019-05-06T18:53:03.664Z,4.30
2019-05-06T18:55:32.543Z,3.80
2019-05-06T18:58:02.214Z,2.87
2019-05-06T19:00:28.844Z,2.27
2019-05-06T19:02:55.793Z,3.00
2019-05-06T19:05:26.984Z,2.80
2019-05-06T19:07:53.280Z,2.52
2019-05-06T19:10:33.187Z,2.60
2019-05-06T19:13:01.816Z,2.92
2019-05-06T19:15:29.761Z,4.12
2019-05-06T19:17:56.623Z,4.20
2019-05-06T19:20:24.454Z,2.95
2019-05-06T19:22:53.395Z,2.98
2019-05-06T19:25:20.023Z,2.60
2019-05-06T19:27:46.760Z,2.75
2019-05-06T19:30:13.740Z,2.85
2019-05-06T19:32:43.302Z,2.80
2019-05-06T19:35:10.101Z,3.25
2019-05-06T19:37:36.803Z,2.75
2019-05-06T19:40:04.922Z,2.75
2019-05-06T19:42:43.694Z,2.70
2019-05-06T19:45:02.524Z,3.17
2019-05-06T19:47:31.887Z,2.90
2019-05-06T19:49:58.190Z,2.67
2019-05-06T19:52:25.196Z,3.10
2019-05-06T19:54:52.367Z,3.00
2019-05-06T19:57:19.098Z,3.33
2019-05-06T19:59:46.083Z,3.00
2019-05-06T20:02:13.119Z,2.42
2019-05-06T20:04:44.085Z,2.80
2019-05-06T20:07:18.072Z,2.77
2019-05-06T20:09:48.123Z,2.55
2019-05-06T20:12:26.158Z,3.15
2019-05-06T20:14:55.047Z,2.83
2019-05-06T20:17:22.391Z,2.75
2019-05-06T20:19:49.203Z,2.80
2019-05-06T20:22:16.031Z,3.27
2019-05-06T20:24:44.562Z,3.08
2019-05-06T20:27:13.281Z,3.05
2019-05-06T20:29:42.645Z,3.85
2019-05-06T20:32:12.174Z,3.92
2019-05-06T20:34:38.788Z,3.05
2019-05-06T20:37:05.393Z,3.33
2019-05-06T20:39:32.627Z,3.10
2019-05-06T20:41:59.911Z,2.65
2019-05-06T20:44:26.858Z,2.80
2019-05-06T20:46:55.710Z,3.05
2019-05-06T20:49:22.515Z,3.15
2019-05-06T20:51:49.275Z,2.92
2019-05-06T20:54:16.247Z,2.98
2019-05-06T20:56:44.820Z,3.02
2019-05-06T20:59:12.162Z,3.08
2019-05-06T21:01:39.156Z,2.90
2019-05-06T21:04:05.897Z,3.30
2019-05-06T21:06:33.196Z,2.90
2019-05-06T21:09:00.033Z,2.70
2019-05-06T21:11:29.323Z,3.52
2019-05-06T21:13:55.352Z,3.50
2019-05-06T21:16:22.588Z,3.75
2019-05-06T21:18:49.564Z,3.60
2019-05-06T21:21:16.893Z,3.30
2019-05-06T21:23:44.024Z,3.83
2019-05-06T21:26:13.497Z,4.30
2019-05-06T21:28:42.516Z,4.53
2019-05-06T21:31:09.393Z,5.15
2019-05-06T21:33:36.735Z,5.00
2019-05-06T21:36:03.739Z,5.20
2019-05-06T21:38:30.760Z,5.35
2019-05-06T21:40:57.938Z,5.30
2019-05-06T21:43:25.147Z,5.40
2019-05-06T21:45:54.154Z,6.05
2019-05-06T21:48:22.245Z,6.47
2019-05-06T21:50:49.354Z,6.05
2019-05-06T21:53:16.119Z,6.28
2019-05-06T21:55:46.203Z,5.58
2019-05-06T21:58:13.066Z,6.17
2019-05-06T22:00:43.458Z,10.25
2019-05-06T22:03:13.199Z,7.62
2019-05-06T22:05:39.727Z,6.92
2019-05-06T22:08:06.874Z,6.67
2019-05-06T22:10:34.103Z,6.30
2019-05-06T22:13:01.020Z,6.50
2019-05-06T22:15:28.226Z,5.75
2019-05-06T22:17:57.525Z,6.67
2019-05-06T22:20:24.949Z,6.28
2019-05-06T22:22:52.441Z,5.75
2019-05-06T22:25:21.972Z,6.50
2019-05-06T22:27:51.781Z,6.35
2019-05-06T22:30:19.372Z,5.75
2019-05-06T22:33:04.987Z,6.35
2019-05-06T22:35:32.548Z,6.12
2019-05-06T22:37:59.586Z,6.55
2019-05-06T22:40:26.403Z,5.80
2019-05-06T22:42:54.069Z,6.53
2019-05-06T22:45:22.275Z,6.00
2019-05-06T22:47:48.984Z,6.45
2019-05-06T22:50:15.914Z,5.95
2019-05-06T22:52:42.919Z,6.17
2019-05-06T22:55:12.896Z,6.58
2019-05-06T22:57:39.024Z,6.75
2019-05-06T23:00:09.141Z,6.10
2019-05-06T23:02:39.870Z,6.70
2019-05-06T23:05:07.532Z,6.67
2019-05-06T23:07:34.526Z,7.17
2019-05-06T23:10:01.793Z,6.97
2019-05-06T23:12:28.536Z,7.30
2019-05-06T23:14:55.521Z,7.20
2019-05-06T23:17:22.467Z,7.30
2019-05-06T23:19:49.136Z,7.35
2019-05-06T23:22:16.271Z,7.22
2019-05-06T23:24:43.525Z,7.35
2019-05-06T23:27:12.521Z,7.40
2019-05-06T23:29:39.308Z,6.67
2019-05-06T23:32:06.494Z,7.20
2019-05-06T23:34:33.624Z,7.20
2019-05-06T23:37:04.023Z,6.83
2019-05-06T23:40:12.598Z,7.17
2019-05-06T23:43:16.709Z,6.62
2019-05-06T23:46:22.786Z,6.45
2019-05-06T23:49:27.017Z,6.70
2019-05-06T23:52:31.999Z,6.60
2019-05-06T23:55:36.383Z,7.67
2019-05-06T23:58:03.125Z,7.10
